Decoded Metar for PATL (TATALINA in AK, USA) (IATA:TLJ) | Meteo·Mobile Aviation Weather
aviador You're here:

PATL Decoded Metar

TATALINA in AK, USA
Report Time2019-09-15 13:55:00
UTC Time2019-09-15 14:44:43
Flight Rules vfr VFR
WindVRB at 04 kt
Visibility9999 m
Phenomena:N/A
Clouds:Broken 046 Hf
Broken 110 Hf
Expected CloudBase > 1,200 ft AGL from Temp-Dew spread
Ceiling4,600 ft
Temp10°C (ISA -3)
Dew Point07°C (82% RH)
AAT7.9°C
QNH1005 hPa
Density Alt1,007 ft
Elevation965 ft
Report Wrong Elevation
Raw Report
PATL 151355Z AUTO VRB04KT 10SM BKN046 BKN110 10/07 A2969=

Extra information for PATL:More info

Metar Taf Metar & Taf Last 4 Metars F.Rules Stats Wind Profile Meteogram Temp Stats Airport Information Weather charts Add Link Nearby VenuesMetar ALERT Operation Metar Decoded Social comments

AIRNAV info for PATL